sensor_id;sensor_type;location;lat;lon;timestamp;temperature;humidity
58447;DHT22;44240;51.840;7.258;2024-01-10T00:01:56;-1.70;53.60
58447;DHT22;44240;51.840;7.258;2024-01-10T00:04:23;-1.80;53.70
58447;DHT22;44240;51.840;7.258;2024-01-10T00:06:50;-1.80;53.90
58447;DHT22;44240;51.840;7.258;2024-01-10T00:09:17;-1.80;54.00
58447;DHT22;44240;51.840;7.258;2024-01-10T00:11:44;-1.80;54.00
58447;DHT22;44240;51.840;7.258;2024-01-10T00:14:11;-1.80;54.10
58447;DHT22;44240;51.840;7.258;2024-01-10T00:16:37;-1.80;54.30
58447;DHT22;44240;51.840;7.258;2024-01-10T00:19:04;-1.80;54.30
58447;DHT22;44240;51.840;7.258;2024-01-10T00:21:31;-1.80;54.30
58447;DHT22;44240;51.840;7.258;2024-01-10T00:23:58;-1.80;54.40
58447;DHT22;44240;51.840;7.258;2024-01-10T00:26:25;-1.80;54.50
58447;DHT22;44240;51.840;7.258;2024-01-10T00:28:52;-1.90;54.60
58447;DHT22;44240;51.840;7.258;2024-01-10T00:31:18;-1.90;54.70
58447;DHT22;44240;51.840;7.258;2024-01-10T00:33:45;-1.90;54.80
58447;DHT22;44240;51.840;7.258;2024-01-10T00:36:12;-1.90;54.90
58447;DHT22;44240;51.840;7.258;2024-01-10T00:38:39;-2.00;55.00
58447;DHT22;44240;51.840;7.258;2024-01-10T00:41:06;-2.00;55.20
58447;DHT22;44240;51.840;7.258;2024-01-10T00:43:32;-2.00;55.30
58447;DHT22;44240;51.840;7.258;2024-01-10T00:45:59;-2.10;55.30
58447;DHT22;44240;51.840;7.258;2024-01-10T00:48:26;-2.00;55.60
58447;DHT22;44240;51.840;7.258;2024-01-10T00:50:53;-2.10;55.60
58447;DHT22;44240;51.840;7.258;2024-01-10T00:53:19;-2.10;55.70
58447;DHT22;44240;51.840;7.258;2024-01-10T00:55:46;-2.10;56.70
58447;DHT22;44240;51.840;7.258;2024-01-10T00:58:13;-2.10;55.90
58447;DHT22;44240;51.840;7.258;2024-01-10T01:00:40;-2.20;55.90
58447;DHT22;44240;51.840;7.258;2024-01-10T01:03:07;-2.10;56.10
58447;DHT22;44240;51.840;7.258;2024-01-10T01:05:33;-2.20;56.20
58447;DHT22;44240;51.840;7.258;2024-01-10T01:08:00;-2.20;56.30
58447;DHT22;44240;51.840;7.258;2024-01-10T01:10:27;-2.20;56.40
58447;DHT22;44240;51.840;7.258;2024-01-10T01:12:54;-2.20;56.50
58447;DHT22;44240;51.840;7.258;2024-01-10T01:15:21;-2.20;56.60
58447;DHT22;44240;51.840;7.258;2024-01-10T01:17:48;-2.20;56.70
58447;DHT22;44240;51.840;7.258;2024-01-10T01:20:15;-2.20;56.70
58447;DHT22;44240;51.840;7.258;2024-01-10T01:22:42;-2.20;56.70
58447;DHT22;44240;51.840;7.258;2024-01-10T01:25:08;-2.30;56.70
58447;DHT22;44240;51.840;7.258;2024-01-10T01:27:35;-2.20;56.90
58447;DHT22;44240;51.840;7.258;2024-01-10T01:30:02;-2.20;57.00
58447;DHT22;44240;51.840;7.258;2024-01-10T01:32:30;-2.30;57.00
58447;DHT22;44240;51.840;7.258;2024-01-10T01:34:57;-2.30;57.20
58447;DHT22;44240;51.840;7.258;2024-01-10T01:37:23;-2.30;57.20
58447;DHT22;44240;51.840;7.258;2024-01-10T01:39:50;-2.40;57.20
58447;DHT22;44240;51.840;7.258;2024-01-10T01:42:17;-2.30;57.40
58447;DHT22;44240;51.840;7.258;2024-01-10T01:44:44;-2.30;57.40
58447;DHT22;44240;51.840;7.258;2024-01-10T01:47:11;-2.40;57.40
58447;DHT22;44240;51.840;7.258;2024-01-10T01:49:38;-2.40;57.50
58447;DHT22;44240;51.840;7.258;2024-01-10T01:52:05;-2.40;57.60
58447;DHT22;44240;51.840;7.258;2024-01-10T01:54:33;-2.40;57.60
58447;DHT22;44240;51.840;7.258;2024-01-10T01:57:00;-2.40;57.80
58447;DHT22;44240;51.840;7.258;2024-01-10T01:59:28;-2.40;57.80
58447;DHT22;44240;51.840;7.258;2024-01-10T02:01:55;-2.40;57.80
58447;DHT22;44240;51.840;7.258;2024-01-10T02:04:25;-2.40;57.80
58447;DHT22;44240;51.840;7.258;2024-01-10T02:06:53;-2.40;57.90
58447;DHT22;44240;51.840;7.258;2024-01-10T02:09:19;-2.50;57.80
58447;DHT22;44240;51.840;7.258;2024-01-10T02:11:46;-2.50;58.40
58447;DHT22;44240;51.840;7.258;2024-01-10T02:14:13;-2.40;58.00
58447;DHT22;44240;51.840;7.258;2024-01-10T02:16:40;-2.50;57.90
58447;DHT22;44240;51.840;7.258;2024-01-10T02:19:23;-2.50;57.90
58447;DHT22;44240;51.840;7.258;2024-01-10T02:21:50;-2.50;57.90
58447;DHT22;44240;51.840;7.258;2024-01-10T02:24:17;-2.50;57.90
58447;DHT22;44240;51.840;7.258;2024-01-10T02:26:43;-2.50;57.90
58447;DHT22;44240;51.840;7.258;2024-01-10T02:29:11;-2.50;57.90
58447;DHT22;44240;51.840;7.258;2024-01-10T02:31:38;-2.40;58.00
58447;DHT22;44240;51.840;7.258;2024-01-10T02:34:05;-2.50;58.00
58447;DHT22;44240;51.840;7.258;2024-01-10T02:36:32;-2.50;58.00
58447;DHT22;44240;51.840;7.258;2024-01-10T02:38:58;-2.50;58.00
58447;DHT22;44240;51.840;7.258;2024-01-10T02:41:25;-2.50;58.00
58447;DHT22;44240;51.840;7.258;2024-01-10T02:43:54;-2.50;58.10
58447;DHT22;44240;51.840;7.258;2024-01-10T02:46:26;-2.50;58.10
58447;DHT22;44240;51.840;7.258;2024-01-10T02:48:54;-2.50;58.10
58447;DHT22;44240;51.840;7.258;2024-01-10T02:51:22;-2.50;58.20
58447;DHT22;44240;51.840;7.258;2024-01-10T02:53:49;-2.50;58.10
58447;DHT22;44240;51.840;7.258;2024-01-10T02:56:15;-2.50;58.10
58447;DHT22;44240;51.840;7.258;2024-01-10T02:58:42;-2.50;58.10
58447;DHT22;44240;51.840;7.258;2024-01-10T03:01:09;-2.50;58.20
58447;DHT22;44240;51.840;7.258;2024-01-10T03:03:36;-2.50;58.10
58447;DHT22;44240;51.840;7.258;2024-01-10T03:06:03;-2.50;58.10
58447;DHT22;44240;51.840;7.258;2024-01-10T03:08:30;-2.50;58.10
58447;DHT22;44240;51.840;7.258;2024-01-10T03:10:56;-2.50;58.20
58447;DHT22;44240;51.840;7.258;2024-01-10T03:13:23;-2.50;58.20
58447;DHT22;44240;51.840;7.258;2024-01-10T03:15:50;-2.50;58.20
58447;DHT22;44240;51.840;7.258;2024-01-10T03:18:16;-2.50;58.20
58447;DHT22;44240;51.840;7.258;2024-01-10T03:20:43;-2.50;58.20
58447;DHT22;44240;51.840;7.258;2024-01-10T03:23:10;-2.50;58.20
58447;DHT22;44240;51.840;7.258;2024-01-10T03:25:37;-2.50;58.30
58447;DHT22;44240;51.840;7.258;2024-01-10T03:28:04;-2.60;58.20
58447;DHT22;44240;51.840;7.258;2024-01-10T03:30:31;-2.50;58.40
58447;DHT22;44240;51.840;7.258;2024-01-10T03:32:57;-2.60;58.30
58447;DHT22;44240;51.840;7.258;2024-01-10T03:35:24;-2.50;58.40
58447;DHT22;44240;51.840;7.258;2024-01-10T03:37:51;-2.60;58.40
58447;DHT22;44240;51.840;7.258;2024-01-10T03:40:18;-2.60;58.50
58447;DHT22;44240;51.840;7.258;2024-01-10T03:42:44;-2.60;58.50
58447;DHT22;44240;51.840;7.258;2024-01-10T03:45:11;-2.60;58.50
58447;DHT22;44240;51.840;7.258;2024-01-10T03:47:38;-2.60;58.60
58447;DHT22;44240;51.840;7.258;2024-01-10T03:50:05;-2.60;58.60
58447;DHT22;44240;51.840;7.258;2024-01-10T03:52:33;-2.60;58.50
58447;DHT22;44240;51.840;7.258;2024-01-10T03:55:00;-2.60;58.60
58447;DHT22;44240;51.840;7.258;2024-01-10T03:57:26;-2.60;58.60
58447;DHT22;44240;51.840;7.258;2024-01-10T03:59:53;-2.60;58.60
58447;DHT22;44240;51.840;7.258;2024-01-10T04:02:20;-2.60;58.60
58447;DHT22;44240;51.840;7.258;2024-01-10T04:04:47;-2.60;58.50
58447;DHT22;44240;51.840;7.258;2024-01-10T04:07:13;-2.60;58.50
58447;DHT22;44240;51.840;7.258;2024-01-10T04:09:40;-2.60;58.50
58447;DHT22;44240;51.840;7.258;2024-01-10T04:12:07;-2.60;58.50
58447;DHT22;44240;51.840;7.258;2024-01-10T04:14:34;-2.60;58.40
58447;DHT22;44240;51.840;7.258;2024-01-10T04:17:00;-2.60;58.40
58447;DHT22;44240;51.840;7.258;2024-01-10T04:19:28;-2.60;58.40
58447;DHT22;44240;51.840;7.258;2024-01-10T04:21:55;-2.60;58.40
58447;DHT22;44240;51.840;7.258;2024-01-10T04:24:21;-2.60;58.30
58447;DHT22;44240;51.840;7.258;2024-01-10T04:26:48;-2.60;58.30
58447;DHT22;44240;51.840;7.258;2024-01-10T04:29:15;-2.60;59.20
58447;DHT22;44240;51.840;7.258;2024-01-10T04:31:42;-2.60;58.30
58447;DHT22;44240;51.840;7.258;2024-01-10T04:34:08;-2.60;58.20
58447;DHT22;44240;51.840;7.258;2024-01-10T04:36:35;-2.60;58.20
58447;DHT22;44240;51.840;7.258;2024-01-10T04:39:02;-2.60;58.20
58447;DHT22;44240;51.840;7.258;2024-01-10T04:41:29;-2.60;58.20
58447;DHT22;44240;51.840;7.258;2024-01-10T04:43:56;-2.60;58.10
58447;DHT22;44240;51.840;7.258;2024-01-10T04:46:23;-2.60;58.00
58447;DHT22;44240;51.840;7.258;2024-01-10T04:48:50;-2.60;57.90
58447;DHT22;44240;51.840;7.258;2024-01-10T04:51:18;-2.60;57.90
58447;DHT22;44240;51.840;7.258;2024-01-10T04:53:45;-2.60;57.90
58447;DHT22;44240;51.840;7.258;2024-01-10T04:56:12;-2.60;57.90
58447;DHT22;44240;51.840;7.258;2024-01-10T04:58:38;-2.60;57.90
58447;DHT22;44240;51.840;7.258;2024-01-10T05:01:05;-2.60;57.90
58447;DHT22;44240;51.840;7.258;2024-01-10T05:03:32;-2.60;57.90
58447;DHT22;44240;51.840;7.258;2024-01-10T05:05:59;-2.50;58.00
58447;DHT22;44240;51.840;7.258;2024-01-10T05:08:26;-2.60;58.10
58447;DHT22;44240;51.840;7.258;2024-01-10T05:10:53;-2.60;58.10
58447;DHT22;44240;51.840;7.258;2024-01-10T05:13:20;-2.60;58.10
58447;DHT22;44240;51.840;7.258;2024-01-10T05:15:46;-2.60;58.30
58447;DHT22;44240;51.840;7.258;2024-01-10T05:18:14;-2.60;58.30
58447;DHT22;44240;51.840;7.258;2024-01-10T05:20:41;-2.60;58.40
58447;DHT22;44240;51.840;7.258;2024-01-10T05:23:08;-2.60;58.40
58447;DHT22;44240;51.840;7.258;2024-01-10T05:25:35;-2.70;58.50
58447;DHT22;44240;51.840;7.258;2024-01-10T05:28:02;-2.70;58.50
58447;DHT22;44240;51.840;7.258;2024-01-10T05:30:29;-2.70;58.60
58447;DHT22;44240;51.840;7.258;2024-01-10T05:32:56;-2.70;58.70
58447;DHT22;44240;51.840;7.258;2024-01-10T05:35:23;-2.70;58.70
58447;DHT22;44240;51.840;7.258;2024-01-10T05:37:50;-2.70;58.80
58447;DHT22;44240;51.840;7.258;2024-01-10T05:40:17;-2.70;58.80
58447;DHT22;44240;51.840;7.258;2024-01-10T05:42:45;-2.80;58.90
58447;DHT22;44240;51.840;7.258;2024-01-10T05:45:12;-2.80;58.90
58447;DHT22;44240;51.840;7.258;2024-01-10T05:47:39;-2.80;58.90
58447;DHT22;44240;51.840;7.258;2024-01-10T05:50:06;-2.80;59.00
58447;DHT22;44240;51.840;7.258;2024-01-10T05:52:33;-2.80;59.00
58447;DHT22;44240;51.840;7.258;2024-01-10T05:55:00;-2.80;59.20
58447;DHT22;44240;51.840;7.258;2024-01-10T05:57:29;-2.80;59.20
58447;DHT22;44240;51.840;7.258;2024-01-10T05:59:56;-2.80;59.20
58447;DHT22;44240;51.840;7.258;2024-01-10T06:02:23;-2.80;59.20
58447;DHT22;44240;51.840;7.258;2024-01-10T06:04:51;-2.80;59.20
58447;DHT22;44240;51.840;7.258;2024-01-10T06:07:18;-2.80;59.20
58447;DHT22;44240;51.840;7.258;2024-01-10T06:09:44;-2.80;60.30
58447;DHT22;44240;51.840;7.258;2024-01-10T06:12:12;-2.90;59.30
58447;DHT22;44240;51.840;7.258;2024-01-10T06:14:39;-2.90;59.40
58447;DHT22;44240;51.840;7.258;2024-01-10T06:17:06;-2.90;59.40
58447;DHT22;44240;51.840;7.258;2024-01-10T06:19:33;-2.90;59.40
58447;DHT22;44240;51.840;7.258;2024-01-10T06:21:59;-2.90;59.40
58447;DHT22;44240;51.840;7.258;2024-01-10T06:24:26;-2.90;59.40
58447;DHT22;44240;51.840;7.258;2024-01-10T06:26:53;-2.90;60.40
58447;DHT22;44240;51.840;7.258;2024-01-10T06:29:19;-2.90;60.40
58447;DHT22;44240;51.840;7.258;2024-01-10T06:31:47;-2.90;59.50
58447;DHT22;44240;51.840;7.258;2024-01-10T06:34:14;-2.90;59.50
58447;DHT22;44240;51.840;7.258;2024-01-10T06:36:41;-2.90;59.60
58447;DHT22;44240;51.840;7.258;2024-01-10T06:39:09;-2.90;59.60
58447;DHT22;44240;51.840;7.258;2024-01-10T06:41:40;-2.90;59.60
58447;DHT22;44240;51.840;7.258;2024-01-10T06:44:06;-2.90;59.70
58447;DHT22;44240;51.840;7.258;2024-01-10T06:46:34;-2.90;59.70
58447;DHT22;44240;51.840;7.258;2024-01-10T06:49:01;-2.90;59.80
58447;DHT22;44240;51.840;7.258;2024-01-10T06:51:28;-2.90;59.80
58447;DHT22;44240;51.840;7.258;2024-01-10T06:53:55;-3.00;60.00
58447;DHT22;44240;51.840;7.258;2024-01-10T06:56:30;-3.00;60.00
58447;DHT22;44240;51.840;7.258;2024-01-10T06:58:57;-3.00;60.10
58447;DHT22;44240;51.840;7.258;2024-01-10T07:01:24;-3.00;60.10
58447;DHT22;44240;51.840;7.258;2024-01-10T07:03:52;-3.00;60.20
58447;DHT22;44240;51.840;7.258;2024-01-10T07:06:20;-3.00;60.20
58447;DHT22;44240;51.840;7.258;2024-01-10T07:08:48;-3.00;60.20
58447;DHT22;44240;51.840;7.258;2024-01-10T07:13:46;-3.00;60.30
58447;DHT22;44240;51.840;7.258;2024-01-10T07:16:13;-3.00;60.30
58447;DHT22;44240;51.840;7.258;2024-01-10T07:18:43;-3.00;60.40
58447;DHT22;44240;51.840;7.258;2024-01-10T07:21:12;-3.10;60.30
58447;DHT22;44240;51.840;7.258;2024-01-10T07:23:39;-3.00;60.40
58447;DHT22;44240;51.840;7.258;2024-01-10T07:26:07;-3.10;60.40
58447;DHT22;44240;51.840;7.258;2024-01-10T07:28:34;-3.10;60.50
58447;DHT22;44240;51.840;7.258;2024-01-10T07:31:01;-3.10;60.60
58447;DHT22;44240;51.840;7.258;2024-01-10T07:33:29;-3.10;60.60
58447;DHT22;44240;51.840;7.258;2024-01-10T07:35:58;-3.10;60.60
58447;DHT22;44240;51.840;7.258;2024-01-10T07:38:26;-3.10;60.70
58447;DHT22;44240;51.840;7.258;2024-01-10T07:40:53;-3.10;60.80
58447;DHT22;44240;51.840;7.258;2024-01-10T07:43:20;-3.10;60.80
58447;DHT22;44240;51.840;7.258;2024-01-10T07:45:47;-3.10;60.90
58447;DHT22;44240;51.840;7.258;2024-01-10T07:48:14;-3.10;62.00
58447;DHT22;44240;51.840;7.258;2024-01-10T07:50:41;-3.10;60.90
58447;DHT22;44240;51.840;7.258;2024-01-10T07:53:07;-3.10;60.90
58447;DHT22;44240;51.840;7.258;2024-01-10T07:55:34;-3.10;60.90
58447;DHT22;44240;51.840;7.258;2024-01-10T07:58:01;-3.00;61.00
58447;DHT22;44240;51.840;7.258;2024-01-10T08:00:28;-3.00;61.00
58447;DHT22;44240;51.840;7.258;2024-01-10T08:02:56;-3.00;60.90
58447;DHT22;44240;51.840;7.258;2024-01-10T08:05:24;-2.90;60.90
58447;DHT22;44240;51.840;7.258;2024-01-10T08:07:51;-2.90;60.80
58447;DHT22;44240;51.840;7.258;2024-01-10T08:10:18;-2.90;60.80
58447;DHT22;44240;51.840;7.258;2024-01-10T08:12:45;-2.90;60.60
58447;DHT22;44240;51.840;7.258;2024-01-10T08:15:12;-2.90;60.60
58447;DHT22;44240;51.840;7.258;2024-01-10T08:17:39;-2.90;60.70
58447;DHT22;44240;51.840;7.258;2024-01-10T08:20:07;-2.90;60.50
58447;DHT22;44240;51.840;7.258;2024-01-10T08:22:35;-2.80;60.50
58447;DHT22;44240;51.840;7.258;2024-01-10T08:25:01;-2.90;60.40
58447;DHT22;44240;51.840;7.258;2024-01-10T08:27:29;-2.80;60.50
58447;DHT22;44240;51.840;7.258;2024-01-10T08:29:56;-2.80;60.40
58447;DHT22;44240;51.840;7.258;2024-01-10T08:32:23;-2.80;60.30
58447;DHT22;44240;51.840;7.258;2024-01-10T08:34:50;-2.70;60.30
58447;DHT22;44240;51.840;7.258;2024-01-10T08:37:17;-2.70;60.20
58447;DHT22;44240;51.840;7.258;2024-01-10T08:39:44;-2.70;60.10
58447;DHT22;44240;51.840;7.258;2024-01-10T08:42:11;-2.70;60.10
58447;DHT22;44240;51.840;7.258;2024-01-10T08:44:38;-2.60;60.10
58447;DHT22;44240;51.840;7.258;2024-01-10T08:47:04;-2.60;60.00
58447;DHT22;44240;51.840;7.258;2024-01-10T08:49:31;-2.60;60.00
58447;DHT22;44240;51.840;7.258;2024-01-10T08:51:58;-2.50;60.00
58447;DHT22;44240;51.840;7.258;2024-01-10T08:54:25;-2.50;59.80
58447;DHT22;44240;51.840;7.258;2024-01-10T08:56:51;-2.50;59.70
58447;DHT22;44240;51.840;7.258;2024-01-10T08:59:18;-2.50;59.60
58447;DHT22;44240;51.840;7.258;2024-01-10T09:01:45;-2.40;59.50
58447;DHT22;44240;51.840;7.258;2024-01-10T09:04:12;-2.40;59.60
58447;DHT22;44240;51.840;7.258;2024-01-10T09:06:39;-2.40;59.50
58447;DHT22;44240;51.840;7.258;2024-01-10T09:09:06;-2.30;59.50
58447;DHT22;44240;51.840;7.258;2024-01-10T09:11:33;-2.30;59.30
58447;DHT22;44240;51.840;7.258;2024-01-10T09:14:05;-2.30;59.20
58447;DHT22;44240;51.840;7.258;2024-01-10T09:16:32;-2.20;59.10
58447;DHT22;44240;51.840;7.258;2024-01-10T09:18:59;-2.20;59.10
58447;DHT22;44240;51.840;7.258;2024-01-10T09:21:26;-2.10;59.20
58447;DHT22;44240;51.840;7.258;2024-01-10T09:23:53;-2.10;59.00
58447;DHT22;44240;51.840;7.258;2024-01-10T09:26:20;-2.10;58.90
58447;DHT22;44240;51.840;7.258;2024-01-10T09:28:47;-2.00;58.90
58447;DHT22;44240;51.840;7.258;2024-01-10T09:31:14;-2.00;58.50
58447;DHT22;44240;51.840;7.258;2024-01-10T09:33:41;-1.90;58.50
58447;DHT22;44240;51.840;7.258;2024-01-10T09:36:08;-1.90;58.10
58447;DHT22;44240;51.840;7.258;2024-01-10T09:38:36;-1.80;57.90
58447;DHT22;44240;51.840;7.258;2024-01-10T09:41:04;-1.80;57.90
58447;DHT22;44240;51.840;7.258;2024-01-10T09:43:32;-1.80;57.80
58447;DHT22;44240;51.840;7.258;2024-01-10T09:46:02;-1.70;57.70
58447;DHT22;44240;51.840;7.258;2024-01-10T09:48:32;-1.70;57.70
58447;DHT22;44240;51.840;7.258;2024-01-10T09:50:59;-1.60;57.70
58447;DHT22;44240;51.840;7.258;2024-01-10T09:53:26;-1.60;57.30
58447;DHT22;44240;51.840;7.258;2024-01-10T09:55:54;-1.50;57.40
58447;DHT22;44240;51.840;7.258;2024-01-10T09:58:23;-1.50;57.50
58447;DHT22;44240;51.840;7.258;2024-01-10T10:00:52;-1.50;57.30
58447;DHT22;44240;51.840;7.258;2024-01-10T10:03:19;-1.50;57.00
58447;DHT22;44240;51.840;7.258;2024-01-10T10:05:46;-1.40;57.10
58447;DHT22;44240;51.840;7.258;2024-01-10T10:08:14;-1.40;57.00
58447;DHT22;44240;51.840;7.258;2024-01-10T10:10:49;-1.30;56.80
58447;DHT22;44240;51.840;7.258;2024-01-10T10:13:27;-1.30;56.60
58447;DHT22;44240;51.840;7.258;2024-01-10T10:16:01;-1.20;56.30
58447;DHT22;44240;51.840;7.258;2024-01-10T10:18:29;-1.20;56.30
58447;DHT22;44240;51.840;7.258;2024-01-10T10:21:10;-1.20;56.40
58447;DHT22;44240;51.840;7.258;2024-01-10T10:23:39;-1.10;57.20
58447;DHT22;44240;51.840;7.258;2024-01-10T10:26:10;-1.00;56.10
58447;DHT22;44240;51.840;7.258;2024-01-10T10:28:37;-1.00;55.90
58447;DHT22;44240;51.840;7.258;2024-01-10T10:31:04;-0.90;55.50
58447;DHT22;44240;51.840;7.258;2024-01-10T10:33:32;-0.90;55.30
58447;DHT22;44240;51.840;7.258;2024-01-10T10:35:59;-0.80;55.30
58447;DHT22;44240;51.840;7.258;2024-01-10T10:38:26;-0.80;55.10
58447;DHT22;44240;51.840;7.258;2024-01-10T10:40:53;-0.70;54.90
58447;DHT22;44240;51.840;7.258;2024-01-10T10:43:21;-0.60;54.60
58447;DHT22;44240;51.840;7.258;2024-01-10T10:45:49;-0.60;53.80
58447;DHT22;44240;51.840;7.258;2024-01-10T10:48:20;-0.50;53.60
58447;DHT22;44240;51.840;7.258;2024-01-10T10:51:08;-0.50;53.60
58447;DHT22;44240;51.840;7.258;2024-01-10T10:53:40;-0.40;53.60
58447;DHT22;44240;51.840;7.258;2024-01-10T10:56:10;-0.30;54.20
58447;DHT22;44240;51.840;7.258;2024-01-10T10:58:41;-0.30;52.80
58447;DHT22;44240;51.840;7.258;2024-01-10T11:01:10;-0.20;52.80
58447;DHT22;44240;51.840;7.258;2024-01-10T11:03:38;-0.10;52.50
58447;DHT22;44240;51.840;7.258;2024-01-10T11:06:07;-0.10;52.40
58447;DHT22;44240;51.840;7.258;2024-01-10T11:08:42;0.00;52.40
58447;DHT22;44240;51.840;7.258;2024-01-10T11:16:57;0.20;51.90
58447;DHT22;44240;51.840;7.258;2024-01-10T11:25:07;0.30;51.50
58447;DHT22;44240;51.840;7.258;2024-01-10T11:27:36;0.40;51.60
58447;DHT22;44240;51.840;7.258;2024-01-10T11:30:03;0.40;51.40
58447;DHT22;44240;51.840;7.258;2024-01-10T11:32:32;0.50;50.80
58447;DHT22;44240;51.840;7.258;2024-01-10T11:35:18;0.60;50.80
58447;DHT22;44240;51.840;7.258;2024-01-10T11:37:47;0.60;50.40
58447;DHT22;44240;51.840;7.258;2024-01-10T11:40:45;0.70;50.00
58447;DHT22;44240;51.840;7.258;2024-01-10T11:43:13;0.80;49.60
58447;DHT22;44240;51.840;7.258;2024-01-10T11:45:56;0.90;49.70
58447;DHT22;44240;51.840;7.258;2024-01-10T11:48:27;0.90;49.60
58447;DHT22;44240;51.840;7.258;2024-01-10T11:50:54;1.00;49.50
58447;DHT22;44240;51.840;7.258;2024-01-10T11:53:48;1.10;48.90
58447;DHT22;44240;51.840;7.258;2024-01-10T11:56:17;1.10;48.90
58447;DHT22;44240;51.840;7.258;2024-01-10T11:59:07;1.20;48.90
58447;DHT22;44240;51.840;7.258;2024-01-10T12:01:39;1.20;48.20
58447;DHT22;44240;51.840;7.258;2024-01-10T12:04:06;1.20;47.90
58447;DHT22;44240;51.840;7.258;2024-01-10T12:06:46;1.30;48.10
58447;DHT22;44240;51.840;7.258;2024-01-10T12:09:14;1.40;48.20
58447;DHT22;44240;51.840;7.258;2024-01-10T12:11:41;1.40;46.90
58447;DHT22;44240;51.840;7.258;2024-01-10T12:14:08;1.40;47.00
58447;DHT22;44240;51.840;7.258;2024-01-10T12:16:35;1.40;47.30
58447;DHT22;44240;51.840;7.258;2024-01-10T12:19:03;1.50;47.30
58447;DHT22;44240;51.840;7.258;2024-01-10T12:21:30;1.50;47.10
58447;DHT22;44240;51.840;7.258;2024-01-10T12:23:57;1.50;47.00
58447;DHT22;44240;51.840;7.258;2024-01-10T12:26:23;1.60;47.00
58447;DHT22;44240;51.840;7.258;2024-01-10T12:28:55;1.70;46.90
58447;DHT22;44240;51.840;7.258;2024-01-10T12:31:23;1.60;46.70
58447;DHT22;44240;51.840;7.258;2024-01-10T12:33:49;1.70;46.60
58447;DHT22;44240;51.840;7.258;2024-01-10T12:36:18;1.80;46.40
58447;DHT22;44240;51.840;7.258;2024-01-10T12:38:44;1.80;46.10
58447;DHT22;44240;51.840;7.258;2024-01-10T12:41:11;1.80;46.30
58447;DHT22;44240;51.840;7.258;2024-01-10T12:43:41;1.90;46.60
58447;DHT22;44240;51.840;7.258;2024-01-10T12:46:09;1.90;46.40
58447;DHT22;44240;51.840;7.258;2024-01-10T12:48:39;1.90;46.40
58447;DHT22;44240;51.840;7.258;2024-01-10T12:51:11;2.00;47.40
58447;DHT22;44240;51.840;7.258;2024-01-10T12:53:38;2.00;46.00
58447;DHT22;44240;51.840;7.258;2024-01-10T12:56:07;2.10;45.90
58447;DHT22;44240;51.840;7.258;2024-01-10T12:58:35;2.10;45.60
58447;DHT22;44240;51.840;7.258;2024-01-10T13:01:03;2.20;45.60
58447;DHT22;44240;51.840;7.258;2024-01-10T13:03:30;2.20;45.30
58447;DHT22;44240;51.840;7.258;2024-01-10T13:05:57;2.20;45.40
58447;DHT22;44240;51.840;7.258;2024-01-10T13:08:25;2.30;45.60
58447;DHT22;44240;51.840;7.258;2024-01-10T13:10:52;2.30;45.40
58447;DHT22;44240;51.840;7.258;2024-01-10T13:13:19;2.40;45.60
58447;DHT22;44240;51.840;7.258;2024-01-10T13:15:48;2.30;45.30
58447;DHT22;44240;51.840;7.258;2024-01-10T13:18:15;2.40;46.20
58447;DHT22;44240;51.840;7.258;2024-01-10T13:20:44;2.40;45.40
58447;DHT22;44240;51.840;7.258;2024-01-10T13:23:11;2.40;45.70
58447;DHT22;44240;51.840;7.258;2024-01-10T13:25:38;2.50;45.80
58447;DHT22;44240;51.840;7.258;2024-01-10T13:28:05;2.50;45.80
58447;DHT22;44240;51.840;7.258;2024-01-10T13:30:32;2.50;45.60
58447;DHT22;44240;51.840;7.258;2024-01-10T13:32:59;2.60;45.30
58447;DHT22;44240;51.840;7.258;2024-01-10T13:35:26;2.60;45.20
58447;DHT22;44240;51.840;7.258;2024-01-10T13:37:53;2.60;45.00
58447;DHT22;44240;51.840;7.258;2024-01-10T13:40:20;2.60;45.00
58447;DHT22;44240;51.840;7.258;2024-01-10T13:42:50;2.60;45.10
58447;DHT22;44240;51.840;7.258;2024-01-10T13:45:18;2.60;45.10
58447;DHT22;44240;51.840;7.258;2024-01-10T13:47:45;2.60;45.30
58447;DHT22;44240;51.840;7.258;2024-01-10T13:50:11;2.70;45.50
58447;DHT22;44240;51.840;7.258;2024-01-10T13:52:38;2.70;45.60
58447;DHT22;44240;51.840;7.258;2024-01-10T13:55:06;2.70;45.40
58447;DHT22;44240;51.840;7.258;2024-01-10T13:57:33;2.70;45.00
58447;DHT22;44240;51.840;7.258;2024-01-10T14:00:00;2.70;45.10
58447;DHT22;44240;51.840;7.258;2024-01-10T14:02:37;2.70;45.20
58447;DHT22;44240;51.840;7.258;2024-01-10T14:05:05;2.70;45.30
58447;DHT22;44240;51.840;7.258;2024-01-10T14:07:33;2.70;45.20
58447;DHT22;44240;51.840;7.258;2024-01-10T14:14:35;2.60;44.90
58447;DHT22;44240;51.840;7.258;2024-01-10T14:17:02;2.60;45.10
58447;DHT22;44240;51.840;7.258;2024-01-10T14:19:30;2.60;45.40
58447;DHT22;44240;51.840;7.258;2024-01-10T14:21:58;2.60;45.50
58447;DHT22;44240;51.840;7.258;2024-01-10T14:24:26;2.60;45.50
58447;DHT22;44240;51.840;7.258;2024-01-10T14:26:53;2.60;45.40
58447;DHT22;44240;51.840;7.258;2024-01-10T14:29:21;2.50;45.40
58447;DHT22;44240;51.840;7.258;2024-01-10T14:31:49;2.50;45.50
58447;DHT22;44240;51.840;7.258;2024-01-10T14:34:36;2.50;45.60
58447;DHT22;44240;51.840;7.258;2024-01-10T14:37:03;2.60;45.80
58447;DHT22;44240;51.840;7.258;2024-01-10T14:39:30;2.50;45.70
58447;DHT22;44240;51.840;7.258;2024-01-10T14:41:59;2.50;45.60
58447;DHT22;44240;51.840;7.258;2024-01-10T14:44:26;2.50;45.70
58447;DHT22;44240;51.840;7.258;2024-01-10T14:46:53;2.40;45.80
58447;DHT22;44240;51.840;7.258;2024-01-10T14:49:32;2.40;45.50
58447;DHT22;44240;51.840;7.258;2024-01-10T14:51:59;2.40;45.70
58447;DHT22;44240;51.840;7.258;2024-01-10T14:54:26;2.40;46.80
58447;DHT22;44240;51.840;7.258;2024-01-10T14:56:52;2.40;46.00
58447;DHT22;44240;51.840;7.258;2024-01-10T14:59:19;2.40;46.20
58447;DHT22;44240;51.840;7.258;2024-01-10T15:02:02;2.30;46.30
58447;DHT22;44240;51.840;7.258;2024-01-10T15:04:29;2.30;46.50
58447;DHT22;44240;51.840;7.258;2024-01-10T15:06:56;2.30;46.70
58447;DHT22;44240;51.840;7.258;2024-01-10T15:09:24;2.30;46.90
58447;DHT22;44240;51.840;7.258;2024-01-10T15:11:50;2.20;47.00
58447;DHT22;44240;51.840;7.258;2024-01-10T15:14:17;2.20;47.10
58447;DHT22;44240;51.840;7.258;2024-01-10T15:16:44;2.20;47.30
58447;DHT22;44240;51.840;7.258;2024-01-10T15:19:11;2.10;47.40
58447;DHT22;44240;51.840;7.258;2024-01-10T15:21:38;2.10;47.70
58447;DHT22;44240;51.840;7.258;2024-01-10T15:24:07;2.10;47.80
58447;DHT22;44240;51.840;7.258;2024-01-10T15:26:34;2.00;47.80
58447;DHT22;44240;51.840;7.258;2024-01-10T15:29:01;2.00;47.90
58447;DHT22;44240;51.840;7.258;2024-01-10T15:31:28;2.00;48.10
58447;DHT22;44240;51.840;7.258;2024-01-10T15:33:55;2.00;48.20
58447;DHT22;44240;51.840;7.258;2024-01-10T15:36:22;1.90;48.40
58447;DHT22;44240;51.840;7.258;2024-01-10T15:38:50;1.90;48.50
58447;DHT22;44240;51.840;7.258;2024-01-10T15:41:16;1.90;48.60
58447;DHT22;44240;51.840;7.258;2024-01-10T15:43:43;1.80;48.70
58447;DHT22;44240;51.840;7.258;2024-01-10T15:46:20;1.80;48.80
58447;DHT22;44240;51.840;7.258;2024-01-10T15:48:47;1.70;48.90
58447;DHT22;44240;51.840;7.258;2024-01-10T15:51:15;1.70;49.10
58447;DHT22;44240;51.840;7.258;2024-01-10T15:53:42;1.70;49.20
58447;DHT22;44240;51.840;7.258;2024-01-10T15:56:12;1.60;49.40
58447;DHT22;44240;51.840;7.258;2024-01-10T15:58:39;1.60;49.50